»·PEaware :: N181DJ KSBP-KSBA

N181DJ :: KSBP-KSBA

FLIGHT INFORMATION

Flight Status: Arrived
Operator: Privately registered:
United States
More flights under this callsign
Pilot: Brian H. (29287)
Aircraft: PIPER PA-28 CHEROKEE ARCHER
(PA28)
More flights by this aircraft type
Origin: KSBP San Luis Co Regl
United States
Destination: KSBA Santa Barbara Mun
United States
More flights between these airports :: More routes between these airports
Route: MQO GVO HABUT
File this flight plan on PilotEdge
Remarks:
Altitude:
(Current/Filed)
5,000ft
Speed:
(Current/Filed)
120kts
Departed: 16-Nov-20 02:37 PM
Arrived: 16-Nov-20 03:21 PM
Distance/Time
Traveled:
63nm/0:44
Distance/Time
To Go:
Arrived

Flight Plot

Page will automatically refresh every two minutes.


Map Options




Map Legend


Flown Route
Filed Route
Departure Airport
Arrival Airport
Navaid (VOR, NDB)
Fix

Horizontal Profiles

Position Reports

Time Latitude Longitude Heading Altitude Ground
Speed
16-Nov-20 14:18 35.234207 -120.632867 306 217ft 0kts
16-Nov-20 14:19 35.234207 -120.632867 306 217ft 0kts
16-Nov-20 14:20 35.234207 -120.632867 306 217ft 0kts
16-Nov-20 14:21 35.234207 -120.632867 306 217ft 0kts
16-Nov-20 14:22 35.234207 -120.632867 306 217ft 0kts
16-Nov-20 14:23 35.234207 -120.632867 306 217ft 0kts
16-Nov-20 14:24 35.234207 -120.632867 306 217ft 0kts
16-Nov-20 14:25 35.234207 -120.632867 306 217ft 0kts
16-Nov-20 14:26 35.234207 -120.632867 306 217ft 0kts
16-Nov-20 14:27 35.234207 -120.632867 306 217ft 0kts
16-Nov-20 14:28 35.234207 -120.632867 306 217ft 0kts
16-Nov-20 14:29 35.234207 -120.632867 306 217ft 0kts
16-Nov-20 14:30 35.234207 -120.632867 306 217ft 0kts
16-Nov-20 14:31 35.234207 -120.632867 306 217ft 0kts
16-Nov-20 14:32 35.234207 -120.632867 306 217ft 0kts
16-Nov-20 14:33 35.234237 -120.633648 140 217ft 4kts
16-Nov-20 14:34 35.233156 -120.632024 215 217ft 0kts
16-Nov-20 14:34 35.233156 -120.632024 215 217ft 0kts
16-Nov-20 14:36 35.233126 -120.632050 215 217ft 3kts
16-Nov-20 14:36 35.236369 -120.639232 306 227ft 82kts
16-Nov-20 14:38 35.252833 -120.664092 301 1031ft 79kts
16-Nov-20 14:38 35.263451 -120.682430 301 1563ft 80kts
16-Nov-20 14:40 35.281177 -120.714264 300 1991ft 109kts
16-Nov-20 14:40 35.294956 -120.739304 300 2499ft 103kts
16-Nov-20 14:41 35.310763 -120.767535 299 3107ft 98kts
16-Nov-20 14:42 35.295726 -120.779936 167 3718ft 91kts
16-Nov-20 14:43 35.272804 -120.768968 163 4324ft 85kts
16-Nov-20 14:44 35.252053 -120.757340 146 4860ft 86kts
16-Nov-20 14:45 35.230136 -120.736662 148 4997ft 117kts
16-Nov-20 14:46 35.202762 -120.712148 146 4990ft 122kts
16-Nov-20 14:47 35.175973 -120.686807 146 4991ft 121kts
16-Nov-20 14:48 35.149170 -120.661391 146 4991ft 121kts
16-Nov-20 14:49 35.122435 -120.635948 146 4992ft 122kts
16-Nov-20 14:50 35.095639 -120.610343 146 4993ft 122kts
16-Nov-20 14:51 35.068448 -120.585112 147 4995ft 123kts
16-Nov-20 14:52 35.040900 -120.559461 147 4997ft 124kts
16-Nov-20 14:53 35.013226 -120.533619 147 4998ft 125kts
16-Nov-20 14:54 34.985366 -120.507535 147 5000ft 126kts
16-Nov-20 14:55 34.957320 -120.481189 147 5000ft 127kts
16-Nov-20 14:56 34.929166 -120.455033 144 5000ft 128kts
16-Nov-20 14:57 34.899704 -120.430954 137 5001ft 127kts
16-Nov-20 14:58 34.871358 -120.404342 137 4997ft 128kts
16-Nov-20 14:59 34.844218 -120.377127 148 4999ft 124kts
16-Nov-20 15:00 34.816797 -120.352040 147 4997ft 121kts
16-Nov-20 15:01 34.789872 -120.327762 148 4993ft 118kts
16-Nov-20 15:02 34.763945 -120.303599 146 4992ft 116kts
16-Nov-20 15:03 34.738282 -120.280265 146 4991ft 114kts
16-Nov-20 15:04 34.712524 -120.257907 146 4990ft 113kts
16-Nov-20 15:05 34.686774 -120.235828 146 4991ft 112kts
16-Nov-20 15:06 34.661681 -120.212749 144 4991ft 112kts
16-Nov-20 15:07 34.636708 -120.189540 144 4991ft 112kts
16-Nov-20 15:08 34.611780 -120.166371 144 4991ft 112kts
16-Nov-20 15:09 34.586771 -120.143126 144 4991ft 112kts
16-Nov-20 15:10 34.561450 -120.119826 143 4973ft 114kts
16-Nov-20 15:11 34.536095 -120.096550 143 4973ft 114kts
16-Nov-20 15:12 34.510584 -120.073416 143 4972ft 114kts
16-Nov-20 15:13 34.484857 -120.050435 143 4972ft 115kts
16-Nov-20 15:14 34.458794 -120.027542 143 4972ft 115kts
16-Nov-20 15:15 34.446252 -119.996133 83 4973ft 117kts
16-Nov-20 15:16 34.451211 -119.956466 87 4688ft 132kts
16-Nov-20 15:17 34.451978 -119.910199 84 3183ft 134kts
16-Nov-20 15:18 34.457485 -119.865990 79 1651ft 124kts
16-Nov-20 15:19 34.441150 -119.843340 169 491ft 84kts
16-Nov-20 15:20 34.425297 -119.838671 164 15ft 26kts
16-Nov-20 15:21 34.424464 -119.837874 115 14ft 3kts
16-Nov-20 15:22 34.420925 -119.836025 234 13ft 10kts

Navigation Log

Ident Type
Flight plan parsing failed, navigation log unavailable